createdAt,value
2023-04-02T00:03:44.778Z,64.34
2023-04-02T00:06:35.224Z,64.68
2023-04-02T00:09:22.202Z,65.14
2023-04-02T00:11:52.484Z,65.52
2023-04-02T00:14:30.512Z,65.51
2023-04-02T00:17:02.222Z,65.26
2023-04-02T00:19:49.103Z,65.56
2023-04-02T00:22:20.105Z,65.50
2023-04-02T00:24:52.649Z,66.40
2023-04-02T00:27:21.777Z,66.65
2023-04-02T00:29:53.046Z,66.70
2023-04-02T00:32:27.427Z,66.23
2023-04-02T00:34:57.189Z,64.68
2023-04-02T00:37:29.934Z,64.54
2023-04-02T00:40:05.657Z,64.20
2023-04-02T00:42:35.794Z,64.23
2023-04-02T00:45:05.353Z,63.74
2023-04-02T00:47:37.653Z,62.47
2023-04-02T00:50:36.276Z,63.40
2023-04-02T00:53:11.490Z,63.78
2023-04-02T00:55:41.936Z,63.64
2023-04-02T00:58:25.479Z,63.93
2023-04-02T01:00:55.078Z,64.16
2023-04-02T01:03:26.493Z,64.40
2023-04-02T01:06:08.280Z,64.14
2023-04-02T01:09:05.729Z,63.90
2023-04-02T01:11:55.939Z,63.71
2023-04-02T01:14:52.980Z,63.63
2023-04-02T01:17:59.986Z,63.74
2023-04-02T01:20:55.096Z,63.55
2023-04-02T01:23:53.932Z,63.49
2023-04-02T01:26:45.617Z,63.37
2023-04-02T01:29:18.870Z,63.22
2023-04-02T01:31:49.384Z,63.11
2023-04-02T01:34:20.250Z,63.00
2023-04-02T01:37:05.653Z,62.82
2023-04-02T01:39:52.407Z,62.54
2023-04-02T01:42:37.573Z,62.10
2023-04-02T01:45:15.740Z,61.41
2023-04-02T01:47:45.627Z,60.79
2023-04-02T01:50:28.496Z,60.04
2023-04-02T01:52:59.916Z,59.38
2023-04-02T01:55:55.404Z,58.70
2023-04-02T01:58:27.122Z,58.33
2023-04-02T02:01:16.218Z,57.62
2023-04-02T02:03:45.655Z,57.05
2023-04-02T02:06:16.831Z,56.35
2023-04-02T02:09:02.107Z,56.40
2023-04-02T02:11:33.073Z,55.88
2023-04-02T02:14:08.998Z,54.97
2023-04-02T02:16:39.753Z,54.63
2023-04-02T02:19:34.178Z,54.94
2023-04-02T02:22:18.216Z,54.20
2023-04-02T02:24:47.531Z,53.43
2023-04-02T02:27:45.679Z,52.08
2023-04-02T02:30:24.659Z,51.48
2023-04-02T02:33:08.698Z,50.16
2023-04-02T02:36:17.118Z,50.47
2023-04-02T02:39:23.297Z,49.71
2023-04-02T02:42:08.730Z,49.58
2023-04-02T02:44:42.252Z,48.80
2023-04-02T02:47:16.942Z,48.57
2023-04-02T02:49:51.201Z,48.00
2023-04-02T02:52:22.903Z,47.93
2023-04-02T02:54:55.457Z,47.64
2023-04-02T02:57:28.005Z,46.31
2023-04-02T03:00:01.966Z,47.25
2023-04-02T03:02:30.188Z,46.17
2023-04-02T03:04:59.416Z,45.71
2023-04-02T03:07:28.312Z,45.20
2023-04-02T03:10:15.284Z,44.48
2023-04-02T03:13:14.217Z,43.38
2023-04-02T03:15:49.335Z,44.27
2023-04-02T03:18:34.840Z,42.18
2023-04-02T03:21:14.561Z,40.22
2023-04-02T03:23:47.649Z,38.82
2023-04-02T03:26:22.553Z,38.41
2023-04-02T03:28:59.736Z,36.37
2023-04-02T03:31:45.335Z,35.20
2023-04-02T03:34:22.645Z,35.52
2023-04-02T03:37:08.336Z,35.93
2023-04-02T03:39:55.106Z,37.33
2023-04-02T03:42:24.614Z,37.30
2023-04-02T03:45:00.420Z,37.59
2023-04-02T03:47:56.527Z,36.58
2023-04-02T03:50:36.850Z,36.31
2023-04-02T03:53:08.394Z,35.10
2023-04-02T03:55:38.935Z,34.95
2023-04-02T03:58:16.957Z,35.01
2023-04-02T04:01:05.012Z,34.63
2023-04-02T04:03:36.844Z,32.68
2023-04-02T04:06:26.983Z,31.88
2023-04-02T04:09:10.670Z,31.67
2023-04-02T04:11:45.615Z,31.25
2023-04-02T04:14:18.653Z,30.32
2023-04-02T04:16:53.368Z,29.54
2023-04-02T04:19:26.895Z,29.15
2023-04-02T04:22:10.645Z,28.95
2023-04-02T04:24:39.571Z,28.58
2023-04-02T04:27:28.754Z,28.92
2023-04-02T04:29:59.549Z,28.93
2023-04-02T04:32:40.294Z,29.05
2023-04-02T04:35:27.824Z,29.13
2023-04-02T04:38:41.212Z,28.71
2023-04-02T04:41:21.133Z,28.58
2023-04-02T04:43:55.744Z,28.70
2023-04-02T04:46:31.498Z,28.56
2023-04-02T04:49:11.893Z,28.55
2023-04-02T04:51:49.655Z,29.13
2023-04-02T04:54:17.606Z,29.29
2023-04-02T04:56:50.123Z,29.67
2023-04-02T04:59:25.743Z,30.13
2023-04-02T05:02:24.330Z,30.51
2023-04-02T05:04:53.559Z,30.45
2023-04-02T05:07:25.925Z,30.98
2023-04-02T05:10:02.266Z,31.13
2023-04-02T05:12:53.647Z,31.40
2023-04-02T05:15:35.684Z,30.45
2023-04-02T05:18:25.482Z,30.64
2023-04-02T05:21:20.174Z,30.84
2023-04-02T05:24:18.824Z,31.08
2023-04-02T05:26:50.370Z,31.27
2023-04-02T05:29:34.703Z,31.78
2023-04-02T05:32:16.270Z,31.54
2023-04-02T05:34:51.535Z,31.78
2023-04-02T05:37:22.370Z,31.65
2023-04-02T05:39:55.579Z,31.95
2023-04-02T05:42:36.939Z,31.34
2023-04-02T05:45:09.541Z,31.30
2023-04-02T05:47:40.918Z,31.70
2023-04-02T05:50:27.053Z,31.35
2023-04-02T05:53:04.534Z,31.81
2023-04-02T05:55:40.980Z,31.59
2023-04-02T05:58:36.006Z,31.67
2023-04-02T06:01:28.254Z,31.19
2023-04-02T06:04:36.522Z,31.36
2023-04-02T06:07:10.469Z,31.70
2023-04-02T06:09:47.357Z,31.78
2023-04-02T06:12:40.300Z,31.68
2023-04-02T06:15:20.101Z,30.51
2023-04-02T06:17:51.759Z,30.80
2023-04-02T06:20:21.355Z,31.20
2023-04-02T06:22:56.375Z,31.16
2023-04-02T06:25:29.933Z,31.36
2023-04-02T06:28:01.789Z,31.12
2023-04-02T06:30:37.227Z,30.80
2023-04-02T06:33:05.807Z,30.11
2023-04-02T06:35:37.328Z,29.18
2023-04-02T06:38:13.902Z,27.41
2023-04-02T06:40:49.748Z,25.97
2023-04-02T06:43:20.719Z,25.12
2023-04-02T06:45:54.349Z,24.32
2023-04-02T06:48:25.442Z,23.17
2023-04-02T06:51:07.777Z,22.08
2023-04-02T06:53:43.850Z,20.70
2023-04-02T06:56:24.238Z,19.37
2023-04-02T06:58:55.638Z,18.54
2023-04-02T07:01:29.144Z,17.76
2023-04-02T07:03:58.815Z,16.62
2023-04-02T07:06:27.950Z,15.62
2023-04-02T07:08:56.206Z,14.92
2023-04-02T07:11:24.703Z,14.34
2023-04-02T07:13:52.723Z,13.71
2023-04-02T07:16:26.349Z,13.61
2023-04-02T07:18:55.948Z,13.84
2023-04-02T07:21:24.869Z,13.85
2023-04-02T07:23:54.426Z,13.57
2023-04-02T07:26:26.460Z,13.32
2023-04-02T07:28:56.800Z,12.82
2023-04-02T07:31:28.185Z,12.48
2023-04-02T07:33:58.473Z,12.15
2023-04-02T07:36:29.057Z,12.16
2023-04-02T07:38:57.309Z,11.69
2023-04-02T07:41:25.692Z,11.38
2023-04-02T07:43:54.112Z,11.07
2023-04-02T07:46:22.490Z,10.84
2023-04-02T07:48:50.663Z,10.53
2023-04-02T07:51:25.441Z,10.40
2023-04-02T07:53:54.294Z,10.41
2023-04-02T07:56:25.331Z,10.45
2023-04-02T07:58:54.059Z,10.13
2023-04-02T08:01:27.427Z,9.87
2023-04-02T08:03:57.801Z,9.55
2023-04-02T08:06:26.232Z,9.35
2023-04-02T08:08:54.690Z,9.13
2023-04-02T08:11:22.848Z,8.91
2023-04-02T08:13:50.984Z,8.82
2023-04-02T08:16:19.173Z,8.73
2023-04-02T08:18:47.709Z,8.50
2023-04-02T08:21:16.845Z,8.47
2023-04-02T08:23:45.586Z,8.47
2023-04-02T08:26:18.837Z,8.37
2023-04-02T08:28:47.334Z,8.26
2023-04-02T08:31:15.778Z,8.15
2023-04-02T08:33:44.101Z,8.08
2023-04-02T08:36:19.331Z,7.99
2023-04-02T08:38:48.063Z,7.86
2023-04-02T08:41:27.148Z,8.11
2023-04-02T08:44:23.243Z,7.98
2023-04-02T08:46:51.324Z,7.85
2023-04-02T08:49:32.828Z,7.89
2023-04-02T08:52:00.958Z,7.93
2023-04-02T08:54:50.155Z,7.82
2023-04-02T08:57:29.049Z,7.70
2023-04-02T09:00:20.982Z,7.86
2023-04-02T09:03:00.392Z,7.94
2023-04-02T09:05:39.700Z,8.13
2023-04-02T09:08:20.490Z,8.40
2023-04-02T09:11:02.768Z,8.63
2023-04-02T09:13:34.099Z,8.83
2023-04-02T09:16:14.651Z,8.83
2023-04-02T09:18:45.441Z,8.94
2023-04-02T09:21:19.907Z,8.93
2023-04-02T09:23:49.816Z,8.99
2023-04-02T09:26:38.443Z,8.96
2023-04-02T09:29:12.749Z,9.19
2023-04-02T09:31:53.750Z,8.95
2023-04-02T09:34:36.637Z,8.63
2023-04-02T09:37:16.557Z,8.73
2023-04-02T09:39:46.152Z,8.56
2023-04-02T09:42:35.390Z,8.29
2023-04-02T09:45:25.537Z,8.22
2023-04-02T09:47:57.696Z,8.04
2023-04-02T09:50:29.324Z,7.97
2023-04-02T09:52:59.930Z,8.16
2023-04-02T09:55:29.524Z,7.94
2023-04-02T09:58:16.249Z,7.73
2023-04-02T10:00:52.567Z,7.93
2023-04-02T10:03:33.244Z,7.74
2023-04-02T10:06:14.642Z,7.56
2023-04-02T10:08:44.822Z,7.40
2023-04-02T10:11:45.747Z,7.56
2023-04-02T10:14:28.225Z,7.33
2023-04-02T10:17:18.368Z,7.22
2023-04-02T10:20:06.367Z,7.18
2023-04-02T10:22:34.514Z,7.94
2023-04-02T10:25:06.642Z,8.02
2023-04-02T10:27:48.239Z,8.19
2023-04-02T10:30:21.173Z,8.01
2023-04-02T10:33:14.912Z,7.72
2023-04-02T10:36:22.031Z,8.15
2023-04-02T10:39:01.909Z,7.98
2023-04-02T10:41:36.424Z,7.45
2023-04-02T10:44:40.087Z,7.69
2023-04-02T10:47:30.418Z,7.71
2023-04-02T10:50:13.962Z,7.41
2023-04-02T10:53:21.616Z,7.87
2023-04-02T10:56:03.450Z,8.54
2023-04-02T10:58:35.539Z,10.66
2023-04-02T11:01:12.043Z,10.96
2023-04-02T11:03:46.222Z,11.34
2023-04-02T11:06:20.221Z,11.56
2023-04-02T11:08:52.614Z,11.67
2023-04-02T11:11:25.523Z,11.55
2023-04-02T11:14:12.701Z,11.74
2023-04-02T11:16:44.207Z,11.31
2023-04-02T11:19:19.059Z,10.99
2023-04-02T11:21:59.368Z,11.06
2023-04-02T11:24:31.609Z,10.78
2023-04-02T11:27:12.241Z,11.21
2023-04-02T11:30:18.303Z,12.35
2023-04-02T11:32:48.475Z,16.51
2023-04-02T11:35:32.283Z,17.71
2023-04-02T11:38:23.476Z,16.77
2023-04-02T11:40:57.615Z,16.52
2023-04-02T11:43:38.621Z,16.30
2023-04-02T11:46:21.652Z,15.54
2023-04-02T11:48:50.192Z,14.84
2023-04-02T11:51:34.064Z,14.36
2023-04-02T11:54:02.772Z,13.77
2023-04-02T11:56:48.109Z,13.89
2023-04-02T11:59:32.626Z,14.18
2023-04-02T12:02:22.595Z,14.21
2023-04-02T12:05:08.986Z,14.55
2023-04-02T12:07:57.792Z,14.85
2023-04-02T12:10:52.725Z,15.94
2023-04-02T12:13:42.475Z,16.64
2023-04-02T12:16:12.662Z,17.92
2023-04-02T12:18:46.414Z,19.15
2023-04-02T12:21:21.500Z,21.19
2023-04-02T12:23:53.741Z,24.23
2023-04-02T12:26:35.716Z,26.22
2023-04-02T12:29:27.538Z,27.20
2023-04-02T12:31:58.288Z,29.14
2023-04-02T12:34:30.015Z,28.34
2023-04-02T12:37:04.480Z,27.70
2023-04-02T12:39:34.994Z,28.01
2023-04-02T12:42:03.241Z,28.23
2023-04-02T12:44:32.154Z,29.21
2023-04-02T12:47:01.728Z,29.85
2023-04-02T12:49:43.439Z,30.79
2023-04-02T12:52:15.965Z,30.29
2023-04-02T12:54:51.624Z,31.93
2023-04-02T12:57:46.728Z,33.93
2023-04-02T13:00:30.419Z,34.10
2023-04-02T13:03:01.288Z,33.99
2023-04-02T13:05:40.169Z,33.77
2023-04-02T13:08:39.455Z,34.53
2023-04-02T13:11:08.287Z,33.52
2023-04-02T13:13:39.603Z,33.90
2023-04-02T13:16:25.801Z,34.17
2023-04-02T13:19:21.446Z,33.53
2023-04-02T13:21:53.714Z,31.44
2023-04-02T13:24:25.031Z,29.76
2023-04-02T13:26:59.341Z,31.26
2023-04-02T13:29:29.699Z,33.62
2023-04-02T13:32:02.260Z,33.45
2023-04-02T13:34:31.012Z,34.62
2023-04-02T13:36:59.634Z,35.02
2023-04-02T13:39:28.047Z,35.34
2023-04-02T13:41:59.062Z,35.98
2023-04-02T13:44:34.049Z,36.04
2023-04-02T13:47:02.301Z,36.06
2023-04-02T13:49:32.049Z,35.73
2023-04-02T13:52:02.788Z,35.86
2023-04-02T13:54:52.520Z,37.10
2023-04-02T13:57:21.014Z,38.30
2023-04-02T13:59:49.186Z,39.08
2023-04-02T14:02:25.642Z,40.05
2023-04-02T14:05:04.825Z,40.30
2023-04-02T14:08:05.113Z,40.16
2023-04-02T14:10:58.148Z,39.40
2023-04-02T14:13:59.793Z,36.67
2023-04-02T14:16:47.720Z,36.32
2023-04-02T14:19:38.719Z,37.17
2023-04-02T14:22:50.750Z,36.58
2023-04-02T14:25:36.897Z,37.17
2023-04-02T14:28:38.670Z,37.07
2023-04-02T14:31:27.584Z,36.35
2023-04-02T14:34:13.072Z,36.61
2023-04-02T14:36:58.244Z,36.15
2023-04-02T14:39:57.391Z,34.91
2023-04-02T14:42:28.686Z,34.03
2023-04-02T14:45:16.578Z,34.21
2023-04-02T14:47:53.546Z,34.05
2023-04-02T14:50:29.596Z,34.82
2023-04-02T14:53:04.360Z,35.06
2023-04-02T14:55:43.620Z,33.22
2023-04-02T14:58:20.377Z,30.95
2023-04-02T15:00:58.662Z,31.52
2023-04-02T15:03:33.776Z,32.26
2023-04-02T15:06:11.439Z,33.46
2023-04-02T15:08:58.635Z,34.95
2023-04-02T15:11:52.930Z,40.22
2023-04-02T15:14:28.518Z,42.37
2023-04-02T15:16:56.672Z,42.16
2023-04-02T15:19:24.861Z,41.06
2023-04-02T15:22:08.068Z,41.22
2023-04-02T15:24:53.434Z,40.28
2023-04-02T15:27:49.855Z,39.85
2023-04-02T15:30:35.076Z,39.55
2023-04-02T15:33:38.482Z,39.36
2023-04-02T15:36:19.314Z,40.28
2023-04-02T15:39:08.066Z,40.39
2023-04-02T15:41:45.899Z,40.03
2023-04-02T15:44:17.018Z,40.21
2023-04-02T15:46:57.386Z,41.43
2023-04-02T15:50:07.982Z,41.69
2023-04-02T15:52:51.362Z,40.08
2023-04-02T15:55:31.189Z,36.75
2023-04-02T15:58:33.268Z,35.41
2023-04-02T16:01:23.397Z,36.35
2023-04-02T16:04:23.180Z,37.46
2023-04-02T16:07:23.770Z,38.75
2023-04-02T16:10:37.867Z,39.67
2023-04-02T16:13:13.886Z,40.12
2023-04-02T16:16:05.556Z,40.19
2023-04-02T16:18:50.458Z,39.79
2023-04-02T16:21:22.719Z,39.33
2023-04-02T16:23:52.014Z,38.62
2023-04-02T16:27:32.036Z,37.59
2023-04-02T16:30:33.355Z,37.30
2023-04-02T16:33:19.138Z,36.36
2023-04-02T16:35:50.451Z,35.19
2023-04-02T16:38:36.689Z,33.68
2023-04-02T16:41:20.155Z,34.10
2023-04-02T16:43:54.256Z,34.68
2023-04-02T16:46:39.650Z,35.11
2023-04-02T16:49:31.442Z,35.69
2023-04-02T16:52:35.297Z,36.38
2023-04-02T16:55:15.373Z,36.69
2023-04-02T16:58:03.191Z,36.40
2023-04-02T17:00:37.922Z,39.56
2023-04-02T17:03:09.236Z,39.57
2023-04-02T17:06:00.565Z,36.89
2023-04-02T17:08:43.443Z,35.79
2023-04-02T17:11:33.343Z,35.93
2023-04-02T17:14:10.710Z,35.51
2023-04-02T17:16:42.918Z,35.88
2023-04-02T17:19:16.180Z,36.42
2023-04-02T17:21:50.983Z,36.87
2023-04-02T17:24:36.204Z,36.77
2023-04-02T17:27:20.030Z,37.27
2023-04-02T17:29:52.587Z,38.03
2023-04-02T17:32:33.259Z,37.74
2023-04-02T17:35:29.754Z,38.16
2023-04-02T17:38:35.032Z,40.17
2023-04-02T17:41:12.295Z,40.84
2023-04-02T17:44:07.060Z,41.86
2023-04-02T17:46:56.521Z,43.23
2023-04-02T17:49:38.431Z,44.85
2023-04-02T17:52:30.456Z,44.74
2023-04-02T17:55:13.830Z,44.21
2023-04-02T17:58:06.535Z,44.62
2023-04-02T18:00:54.465Z,45.11
2023-04-02T18:03:32.268Z,45.15
2023-04-02T18:06:05.416Z,44.98
2023-04-02T18:08:54.951Z,46.03
2023-04-02T18:11:47.512Z,45.99
2023-04-02T18:14:51.759Z,46.07
2023-04-02T18:17:54.492Z,46.22
2023-04-02T18:20:39.853Z,46.90
2023-04-02T18:23:13.722Z,47.77
2023-04-02T18:26:10.248Z,47.04
2023-04-02T18:29:11.533Z,46.77
2023-04-02T18:32:09.227Z,46.62
2023-04-02T18:34:51.513Z,46.88
2023-04-02T18:37:44.453Z,47.17
2023-04-02T18:40:38.070Z,46.99
2023-04-02T18:43:47.144Z,47.09
2023-04-02T18:46:42.254Z,47.22
2023-04-02T18:49:26.336Z,49.76
2023-04-02T18:52:03.004Z,51.48
2023-04-02T18:54:35.904Z,51.67
2023-04-02T18:57:22.138Z,52.63
2023-04-02T19:00:02.404Z,53.72
2023-04-02T19:02:43.181Z,54.48
2023-04-02T19:05:29.697Z,55.34
2023-04-02T19:08:23.045Z,55.35
2023-04-02T19:11:13.858Z,54.80
2023-04-02T19:13:42.639Z,54.72
2023-04-02T19:16:38.538Z,54.63
2023-04-02T19:19:22.952Z,55.67
2023-04-02T19:21:51.595Z,56.83
2023-04-02T19:24:29.542Z,57.87
2023-04-02T19:27:22.247Z,57.93
2023-04-02T19:30:15.593Z,59.14
2023-04-02T19:33:17.972Z,59.83
2023-04-02T19:36:02.063Z,57.65
2023-04-02T19:38:41.600Z,57.44
2023-04-02T19:41:18.443Z,56.94
2023-04-02T19:43:47.302Z,57.29
2023-04-02T19:46:16.716Z,57.24
2023-04-02T19:48:51.401Z,56.84
2023-04-02T19:51:19.681Z,56.70
2023-04-02T19:53:47.858Z,57.20
2023-04-02T19:56:16.238Z,57.07
2023-04-02T19:58:44.539Z,57.08
2023-04-02T20:01:12.678Z,58.26
2023-04-02T20:03:41.367Z,58.42
2023-04-02T20:06:09.592Z,57.48
2023-04-02T20:08:37.973Z,57.26
2023-04-02T20:11:06.984Z,57.74
2023-04-02T20:13:35.440Z,58.51
2023-04-02T20:16:05.846Z,58.81
2023-04-02T20:18:34.483Z,61.86
2023-04-02T20:21:08.069Z,60.70
2023-04-02T20:23:37.550Z,63.62
2023-04-02T20:26:07.113Z,64.72
2023-04-02T20:28:35.420Z,64.08
2023-04-02T20:31:15.733Z,65.13
2023-04-02T20:33:45.188Z,66.60
2023-04-02T20:36:17.778Z,65.83
2023-04-02T20:38:46.102Z,66.28
2023-04-02T20:41:14.483Z,65.39
2023-04-02T20:43:43.165Z,64.60
2023-04-02T20:46:12.994Z,63.71
2023-04-02T20:48:41.562Z,63.33
2023-04-02T20:51:13.181Z,62.87
2023-04-02T20:53:41.838Z,62.57
2023-04-02T20:56:15.520Z,62.53
2023-04-02T20:58:44.458Z,62.42
2023-04-02T21:01:21.214Z,62.14
2023-04-02T21:03:54.516Z,61.85
2023-04-02T21:06:25.630Z,61.76
2023-04-02T21:08:55.081Z,61.97
2023-04-02T21:11:23.616Z,61.11
2023-04-02T21:13:52.747Z,60.27
2023-04-02T21:16:26.239Z,59.46
2023-04-02T21:18:57.753Z,59.07
2023-04-02T21:21:27.466Z,58.48
2023-04-02T21:23:59.011Z,58.45
2023-04-02T21:26:29.200Z,58.42
2023-04-02T21:28:57.446Z,58.35
2023-04-02T21:31:28.802Z,58.22
2023-04-02T21:33:58.807Z,57.98
2023-04-02T21:36:29.667Z,57.83
2023-04-02T21:39:03.920Z,57.63
2023-04-02T21:41:37.858Z,57.29
2023-04-02T21:44:08.583Z,57.38
2023-04-02T21:46:40.986Z,58.00
2023-04-02T21:49:12.325Z,58.35
2023-04-02T21:51:43.657Z,58.14
2023-04-02T21:54:13.434Z,58.03
2023-04-02T21:56:44.897Z,57.80
2023-04-02T21:59:15.778Z,57.84
2023-04-02T22:01:50.059Z,57.79
2023-04-02T22:04:25.363Z,57.74
2023-04-02T22:06:54.528Z,57.58
2023-04-02T22:09:25.587Z,56.78
2023-04-02T22:11:56.652Z,55.51
2023-04-02T22:14:26.013Z,54.70
2023-04-02T22:16:54.627Z,54.28
2023-04-02T22:19:23.641Z,53.52
2023-04-02T22:21:51.991Z,53.01
2023-04-02T22:24:20.396Z,52.87
2023-04-02T22:26:49.667Z,52.80
2023-04-02T22:29:18.029Z,52.79
2023-04-02T22:31:46.882Z,52.71
2023-04-02T22:34:15.843Z,52.37
2023-04-02T22:36:43.970Z,52.61
2023-04-02T22:39:12.683Z,52.52
2023-04-02T22:41:41.077Z,52.65
2023-04-02T22:44:14.010Z,52.65
2023-04-02T22:46:42.844Z,52.66
2023-04-02T22:49:11.620Z,52.57
2023-04-02T22:51:39.942Z,52.48
2023-04-02T22:54:08.357Z,52.34
2023-04-02T22:56:36.634Z,52.23
2023-04-02T22:59:05.005Z,51.95
2023-04-02T23:01:35.508Z,51.82
2023-04-02T23:04:04.789Z,51.30
2023-04-02T23:06:33.869Z,50.49
2023-04-02T23:09:02.740Z,50.55
2023-04-02T23:11:31.054Z,50.63
2023-04-02T23:13:59.874Z,50.31
2023-04-02T23:16:29.583Z,50.37
2023-04-02T23:18:58.532Z,49.92
2023-04-02T23:21:27.563Z,49.66
2023-04-02T23:23:55.863Z,49.52
2023-04-02T23:26:28.074Z,49.44
2023-04-02T23:28:58.337Z,49.43
2023-04-02T23:31:27.210Z,49.45
2023-04-02T23:33:55.978Z,49.04
2023-04-02T23:36:32.827Z,49.16
2023-04-02T23:39:05.189Z,48.92
2023-04-02T23:41:33.759Z,47.95
2023-04-02T23:44:03.108Z,48.48
2023-04-02T23:46:32.977Z,48.21
2023-04-02T23:49:03.081Z,48.36
2023-04-02T23:51:32.956Z,48.14
2023-04-02T23:54:01.206Z,48.22
2023-04-02T23:56:30.970Z,47.78
2023-04-02T23:58:59.270Z,47.79
